Time;durP1;ratioP1;P1;durP2;ratioP2;P2;SDS_P1;SDS_P2;PMS_P1;PMS_P2;Temp;Humidity;BMP_temperature;BMP_pressure;BME280_temperature;BME280_humidity;BME280_pressure;Samples;Min_cycle;Max_cycle;Signal;HPM_P1;HPM_P2
2023/12/19 00:00:14;;;;;;;3.63;3.00;;;14.40;97.40;;;;;;5102810;28;20174;-89
2023/12/19 00:02:42;;;;;;;4.17;3.20;;;14.30;97.30;;;;;;5114962;28;20171;-89
2023/12/19 00:05:11;;;;;;;3.70;3.30;;;14.30;97.40;;;;;;5102297;28;20177;-89
2023/12/19 00:07:37;;;;;;;3.77;3.10;;;14.30;97.30;;;;;;5101448;28;20432;-89
2023/12/19 00:10:07;;;;;;;4.60;3.70;;;14.30;97.30;;;;;;5098098;28;20405;-89
2023/12/19 00:12:37;;;;;;;4.37;3.50;;;14.30;97.30;;;;;;5099310;28;20178;-89
2023/12/19 00:15:03;;;;;;;3.60;2.93;;;14.30;97.30;;;;;;5098037;28;20182;-89
2023/12/19 00:17:32;;;;;;;4.43;3.37;;;14.30;97.30;;;;;;5099489;28;20209;-89
2023/12/19 00:20:01;;;;;;;3.90;3.37;;;14.30;97.30;;;;;;5103227;28;20162;-89
2023/12/19 00:22:27;;;;;;;4.00;3.00;;;14.30;97.20;;;;;;5121066;28;20655;-89
2023/12/19 00:24:52;;;;;;;3.77;3.20;;;14.30;97.30;;;;;;5100260;28;20172;-89
2023/12/19 00:27:21;;;;;;;4.97;3.27;;;14.30;97.30;;;;;;5103536;28;20205;-89
2023/12/19 00:29:48;;;;;;;3.77;3.30;;;14.30;97.30;;;;;;5097023;28;20243;-88
2023/12/19 00:32:17;;;;;;;3.80;3.27;;;14.30;97.30;;;;;;5099436;28;20286;-89
2023/12/19 00:34:45;;;;;;;4.37;3.30;;;14.30;97.20;;;;;;5094822;28;20178;-89
2023/12/19 00:37:12;;;;;;;3.47;3.03;;;14.30;97.20;;;;;;5098968;28;20198;-89
2023/12/19 00:39:38;;;;;;;3.70;3.27;;;14.30;97.20;;;;;;5095426;28;20179;-89
2023/12/19 00:42:08;;;;;;;3.50;3.20;;;14.30;97.20;;;;;;5098407;28;20451;-89
2023/12/19 00:44:37;;;;;;;3.50;3.20;;;14.30;97.20;;;;;;5093966;28;20271;-89
2023/12/19 00:47:03;;;;;;;3.43;2.83;;;14.30;97.20;;;;;;5111621;28;20278;-89
2023/12/19 00:49:32;;;;;;;3.87;3.27;;;14.30;97.20;;;;;;5099581;28;20197;-89
2023/12/19 00:52:00;;;;;;;4.37;3.33;;;14.30;97.20;;;;;;5099073;28;20593;-89
2023/12/19 00:54:29;;;;;;;3.50;3.03;;;14.30;97.20;;;;;;5098755;28;20172;-89
2023/12/19 00:56:58;;;;;;;4.27;3.40;;;14.30;97.10;;;;;;5098808;28;20234;-89
2023/12/19 00:59:26;;;;;;;4.20;2.80;;;14.30;97.20;;;;;;5098627;28;20224;-89
2023/12/19 01:01:52;;;;;;;3.83;3.00;;;14.30;97.10;;;;;;5107810;28;20174;-89
2023/12/19 01:04:19;;;;;;;4.70;2.87;;;14.30;97.10;;;;;;5097547;28;20220;-89
2023/12/19 01:06:45;;;;;;;3.40;3.10;;;14.30;97.10;;;;;;5098787;28;20212;-89
2023/12/19 01:09:14;;;;;;;3.40;2.90;;;14.30;97.10;;;;;;5099298;28;20181;-89
2023/12/19 01:11:39;;;;;;;3.27;2.90;;;14.30;97.10;;;;;;5114221;28;20217;-89
2023/12/19 01:14:08;;;;;;;3.47;2.87;;;14.30;97.10;;;;;;5098185;28;20611;-89
2023/12/19 01:16:37;;;;;;;3.80;3.10;;;14.30;97.10;;;;;;5096861;28;20477;-89
2023/12/19 01:19:09;;;;;;;3.30;2.90;;;14.30;97.10;;;;;;5097963;28;20467;-89
2023/12/19 01:21:35;;;;;;;3.37;3.07;;;14.30;97.00;;;;;;5095583;28;20233;-89
2023/12/19 01:24:01;;;;;;;3.27;2.93;;;14.30;97.00;;;;;;5098130;28;20583;-89
2023/12/19 01:26:32;;;;;;;3.47;2.87;;;14.30;97.00;;;;;;5095217;28;20188;-89
2023/12/19 01:28:58;;;;;;;3.37;2.70;;;14.30;96.90;;;;;;5098314;28;20193;-89
2023/12/19 01:31:27;;;;;;;3.77;3.00;;;14.30;96.90;;;;;;5094903;28;20180;-89
2023/12/19 01:33:59;;;;;;;3.27;2.67;;;14.30;96.90;;;;;;5097745;28;20324;-89
2023/12/19 01:36:25;;;;;;;3.97;3.10;;;14.30;96.90;;;;;;5092367;28;20514;-89
2023/12/19 01:38:51;;;;;;;3.67;2.70;;;14.30;96.80;;;;;;5097069;28;20174;-89
2023/12/19 01:41:22;;;;;;;3.37;3.07;;;14.30;96.80;;;;;;5092062;28;20552;-89
2023/12/19 01:43:50;;;;;;;4.00;3.10;;;14.30;96.80;;;;;;5097484;28;20569;-89
2023/12/19 01:46:17;;;;;;;3.73;3.10;;;14.30;96.80;;;;;;5094053;28;20236;-89
2023/12/19 01:48:44;;;;;;;2.97;2.67;;;14.30;96.80;;;;;;5092149;28;20189;-89
2023/12/19 01:51:11;;;;;;;2.90;2.50;;;14.30;96.70;;;;;;5093808;28;20186;-89
2023/12/19 01:53:38;;;;;;;3.60;2.90;;;14.30;96.70;;;;;;5096894;28;20186;-89
2023/12/19 01:56:08;;;;;;;3.10;2.60;;;14.30;96.70;;;;;;5095554;28;20269;-89
2023/12/19 01:58:35;;;;;;;3.73;2.80;;;14.30;96.60;;;;;;5094733;28;20213;-89
2023/12/19 02:01:05;;;;;;;3.37;2.73;;;14.30;96.60;;;;;;5095022;28;20228;-89
2023/12/19 02:03:32;;;;;;;2.93;2.60;;;14.30;96.60;;;;;;5093676;28;20443;-89
2023/12/19 02:06:02;;;;;;;3.37;2.60;;;14.30;96.50;;;;;;5098094;28;20174;-89
2023/12/19 02:08:28;;;;;;;3.13;2.83;;;14.30;96.50;;;;;;5114129;28;20171;-88
2023/12/19 02:10:57;;;;;;;4.70;2.37;;;14.30;96.50;;;;;;5097682;28;20184;-89
2023/12/19 02:13:23;;;;;;;3.10;2.47;;;14.40;96.40;;;;;;5095047;28;20175;-89
2023/12/19 02:15:52;;;;;;;3.80;2.90;;;14.40;96.40;;;;;;5098926;28;20498;-89
2023/12/19 02:18:24;;;;;;;2.73;2.40;;;14.40;96.60;;;;;;5094284;28;20173;-89
2023/12/19 02:20:53;;;;;;;2.90;2.60;;;14.40;96.30;;;;;;5095620;28;20182;-89
2023/12/19 02:23:19;;;;;;;2.87;2.60;;;14.40;96.20;;;;;;5090910;28;20468;-89
2023/12/19 02:25:47;;;;;;;3.30;2.70;;;14.40;96.20;;;;;;5094725;28;20587;-89
2023/12/19 02:28:16;;;;;;;2.77;2.43;;;14.40;96.10;;;;;;5093923;28;20179;-89
2023/12/19 02:30:43;;;;;;;4.00;2.43;;;14.50;96.10;;;;;;5093901;28;20586;-89
2023/12/19 02:33:12;;;;;;;2.73;2.43;;;14.40;96.00;;;;;;5094809;28;20169;-89
2023/12/19 02:35:37;;;;;;;3.37;2.70;;;14.50;96.00;;;;;;5114075;28;20170;-89
2023/12/19 02:38:06;;;;;;;3.23;2.50;;;14.50;95.90;;;;;;5094199;28;20487;-89
2023/12/19 02:40:35;;;;;;;2.67;2.47;;;14.50;95.90;;;;;;5091694;28;20170;-89
2023/12/19 02:43:04;;;;;;;3.00;2.30;;;14.50;95.90;;;;;;5091919;28;20552;-89
2023/12/19 02:45:34;;;;;;;2.40;2.20;;;14.50;95.80;;;;;;5092634;28;20175;-89
2023/12/19 02:48:02;;;;;;;2.90;2.50;;;14.50;95.80;;;;;;5098409;28;20175;-89
2023/12/19 02:50:31;;;;;;;3.57;2.50;;;14.50;95.70;;;;;;5094099;28;20179;-89
2023/12/19 02:52:57;;;;;;;2.20;2.00;;;14.50;95.70;;;;;;5095729;28;20190;-89
2023/12/19 02:55:25;;;;;;;2.60;2.30;;;14.50;95.70;;;;;;5093334;28;20173;-89
2023/12/19 02:57:51;;;;;;;2.50;2.30;;;14.50;95.70;;;;;;5094237;28;20627;-89
2023/12/19 03:00:20;;;;;;;2.40;2.20;;;14.50;95.70;;;;;;5096995;28;20214;-89
2023/12/19 03:02:49;;;;;;;2.43;2.23;;;14.50;95.70;;;;;;5097509;28;20186;-89
2023/12/19 03:05:15;;;;;;;2.60;2.40;;;14.50;95.70;;;;;;5097110;28;20170;-89
2023/12/19 03:07:43;;;;;;;2.87;2.30;;;14.50;95.70;;;;;;5098022;28;20187;-89
2023/12/19 03:10:09;;;;;;;2.50;2.30;;;14.50;95.70;;;;;;5097940;28;20207;-89
2023/12/19 03:12:38;;;;;;;2.27;2.07;;;14.50;95.70;;;;;;5115997;28;20499;-89
2023/12/19 03:15:07;;;;;;;2.67;2.23;;;14.50;95.70;;;;;;5097007;28;20201;-89
2023/12/19 03:17:36;;;;;;;4.20;2.47;;;14.50;95.70;;;;;;5094477;28;20199;-89
2023/12/19 03:20:06;;;;;;;2.50;2.27;;;14.40;95.70;;;;;;5097852;28;20172;-89
2023/12/19 03:22:34;;;;;;;2.50;2.30;;;14.40;95.70;;;;;;5094081;28;20182;-89
2023/12/19 03:25:00;;;;;;;2.40;2.20;;;14.40;95.80;;;;;;5097286;28;20188;-89
2023/12/19 03:27:26;;;;;;;2.53;2.33;;;14.40;95.80;;;;;;5094443;28;20183;-89
2023/12/19 03:29:54;;;;;;;2.60;2.23;;;14.40;95.90;;;;;;5099018;28;20178;-89
2023/12/19 03:32:20;;;;;;;2.37;2.17;;;14.40;95.90;;;;;;5097622;28;20190;-89
2023/12/19 03:34:46;;;;;;;2.30;2.10;;;14.30;95.90;;;;;;5093804;28;20194;-89
2023/12/19 03:37:14;;;;;;;2.30;2.10;;;14.30;95.90;;;;;;5093656;28;20210;-89
2023/12/19 03:39:43;;;;;;;2.20;1.97;;;14.30;95.90;;;;;;5097570;28;20171;-89
2023/12/19 03:42:12;;;;;;;2.33;1.97;;;14.30;96.00;;;;;;5103501;28;20167;-89
2023/12/19 03:44:44;;;;;;;2.30;2.10;;;14.30;96.00;;;;;;5094900;28;20184;-89
2023/12/19 03:47:19;;;;;;;2.10;1.90;;;14.30;96.00;;;;;;5092624;28;20179;-89
2023/12/19 03:49:44;;;;;;;2.33;2.13;;;14.30;96.10;;;;;;5093792;28;20179;-89
2023/12/19 03:52:13;;;;;;;2.50;2.10;;;14.30;96.10;;;;;;5092566;28;20181;-89
2023/12/19 03:54:39;;;;;;;2.20;2.00;;;14.20;96.10;;;;;;5075822;28;20258;-89
2023/12/19 03:57:05;;;;;;;2.37;1.93;;;14.20;96.10;;;;;;5095052;28;20531;-89
2023/12/19 03:59:31;;;;;;;2.50;2.30;;;14.30;96.10;;;;;;5096945;28;20209;-89
2023/12/19 04:02:01;;;;;;;2.40;2.20;;;14.20;96.10;;;;;;5093671;28;20202;-89
2023/12/19 04:04:26;;;;;;;2.57;2.30;;;14.20;96.20;;;;;;5113118;28;20399;-88
2023/12/19 04:06:55;;;;;;;2.50;2.23;;;14.20;96.20;;;;;;5094420;28;20668;-90
2023/12/19 04:09:23;;;;;;;2.27;1.90;;;14.20;96.20;;;;;;5098249;28;20194;-89
2023/12/19 04:11:52;;;;;;;2.10;1.90;;;14.20;96.20;;;;;;5094752;28;20189;-89
2023/12/19 04:14:23;;;;;;;2.40;2.20;;;14.20;96.20;;;;;;5098063;28;20185;-89
2023/12/19 04:16:49;;;;;;;2.23;2.03;;;14.10;96.10;;;;;;5094429;28;20206;-89
2023/12/19 04:19:19;;;;;;;2.07;1.87;;;14.10;96.10;;;;;;5098812;28;20188;-89
2023/12/19 04:21:44;;;;;;;2.60;2.40;;;14.20;96.10;;;;;;5095137;28;20185;-89
2023/12/19 04:24:11;;;;;;;2.40;2.10;;;14.10;96.10;;;;;;5097144;28;20190;-89
2023/12/19 04:26:37;;;;;;;2.33;2.13;;;14.10;96.10;;;;;;5097795;28;20223;-89
2023/12/19 04:29:05;;;;;;;2.37;2.17;;;14.20;96.10;;;;;;5097160;28;20174;-89
2023/12/19 04:31:34;;;;;;;2.20;1.90;;;14.10;96.10;;;;;;5096599;28;20454;-89
2023/12/19 04:34:02;;;;;;;2.30;2.10;;;14.10;96.20;;;;;;5083318;28;20182;-89
2023/12/19 04:36:31;;;;;;;2.40;2.20;;;14.20;96.30;;;;;;5096466;28;20208;-89
2023/12/19 04:38:57;;;;;;;2.53;2.20;;;14.30;96.00;;;;;;5106257;28;20173;-89
2023/12/19 04:41:26;;;;;;;2.10;1.90;;;14.70;95.30;;;;;;5095047;28;20177;-89
2023/12/19 04:43:52;;;;;;;2.10;1.90;;;15.20;94.10;;;;;;5111566;28;20533;-89
2023/12/19 04:46:21;;;;;;;3.13;2.27;;;15.60;92.90;;;;;;5097612;28;20278;-89
2023/12/19 04:48:50;;;;;;;2.47;2.17;;;16.20;91.20;;;;;;5097284;28;20192;-89
2023/12/19 04:51:20;;;;;;;2.10;1.90;;;16.80;88.10;;;;;;5098305;28;20187;-89
2023/12/19 04:53:51;;;;;;;2.40;2.20;;;17.30;84.40;;;;;;5097345;28;20175;-89
2023/12/19 04:56:17;;;;;;;2.20;2.00;;;17.40;82.30;;;;;;5114760;28;20206;-89
2023/12/19 04:58:45;;;;;;;2.37;2.00;;;17.50;81.90;;;;;;5097126;28;20186;-89
2023/12/19 05:01:18;;;;;;;3.27;1.90;;;17.40;81.50;;;;;;5093921;28;20179;-88
2023/12/19 05:03:44;;;;;;;2.20;1.90;;;17.30;81.40;;;;;;5096389;28;20257;-89
2023/12/19 05:06:19;;;;;;;2.33;1.97;;;17.30;81.30;;;;;;5093523;28;20182;-89
2023/12/19 05:08:49;;;;;;;3.07;2.20;;;17.30;81.20;;;;;;5097420;28;20268;-89
2023/12/19 05:11:17;;;;;;;2.07;1.87;;;17.10;81.30;;;;;;5096193;28;20175;-88
2023/12/19 05:13:43;;;;;;;2.17;1.97;;;17.10;81.40;;;;;;5096880;28;20202;-89
2023/12/19 05:16:13;;;;;;;1.80;1.70;;;17.10;81.60;;;;;;5091617;28;20214;-89
2023/12/19 05:18:43;;;;;;;2.13;1.93;;;17.00;81.80;;;;;;5095076;28;20192;-89
2023/12/19 05:21:12;;;;;;;2.93;2.10;;;16.90;82.30;;;;;;5090856;28;20345;-89
2023/12/19 05:23:45;;;;;;;2.50;2.10;;;16.80;82.90;;;;;;5092894;28;20184;-89
2023/12/19 05:26:11;;;;;;;2.10;1.90;;;16.60;83.80;;;;;;5089551;28;20175;-89
2023/12/19 05:28:39;;;;;;;2.27;2.07;;;16.50;84.80;;;;;;5089873;28;20610;-89
2023/12/19 05:31:09;;;;;;;2.03;1.83;;;16.30;85.50;;;;;;5088409;28;20280;-89
2023/12/19 05:33:35;;;;;;;1.80;1.70;;;16.30;86.40;;;;;;5087993;28;20178;-89
2023/12/19 05:36:02;;;;;;;2.60;1.80;;;16.10;87.30;;;;;;5090631;28;20234;-89
2023/12/19 05:38:34;;;;;;;2.10;1.80;;;16.00;88.00;;;;;;5089402;28;20269;-89
2023/12/19 05:40:59;;;;;;;2.00;1.80;;;15.90;88.90;;;;;;5087751;28;20184;-89
2023/12/19 05:43:28;;;;;;;1.70;1.60;;;15.80;89.70;;;;;;5089467;28;20419;-89
2023/12/19 05:45:57;;;;;;;2.10;1.90;;;15.70;90.10;;;;;;5105586;28;20177;-89
2023/12/19 05:48:25;;;;;;;1.60;1.50;;;15.60;90.50;;;;;;5095269;28;20280;-89
2023/12/19 05:50:51;;;;;;;1.70;1.60;;;15.50;90.70;;;;;;5095468;28;20238;-89
2023/12/19 05:53:20;;;;;;;1.90;1.80;;;15.50;91.10;;;;;;5095674;28;20336;-89
2023/12/19 05:55:49;;;;;;;2.07;1.80;;;15.40;91.30;;;;;;5094009;28;20211;-89
2023/12/19 05:58:18;;;;;;;2.00;1.80;;;15.30;91.60;;;;;;5093798;28;20296;-89
2023/12/19 06:00:55;;;;;;;2.97;1.90;;;15.20;91.90;;;;;;5095535;28;20167;-89
2023/12/19 06:03:25;;;;;;;2.10;1.90;;;15.20;92.30;;;;;;5090550;28;20716;-89
2023/12/19 06:05:54;;;;;;;1.97;1.77;;;15.10;92.60;;;;;;5084408;28;20174;-89
2023/12/19 06:08:20;;;;;;;2.30;2.10;;;15.00;93.00;;;;;;5109866;28;20183;-88
2023/12/19 06:10:46;;;;;;;4.07;2.10;;;14.90;93.40;;;;;;5087449;28;20240;-89
2023/12/19 06:13:15;;;;;;;1.97;1.67;;;14.90;93.80;;;;;;5091471;28;20174;-89
2023/12/19 06:15:43;;;;;;;3.13;2.20;;;14.80;94.10;;;;;;5087250;28;20206;-89
2023/12/19 06:18:11;;;;;;;3.37;1.97;;;14.80;94.40;;;;;;5088895;28;20477;-89
2023/12/19 06:20:37;;;;;;;2.77;2.00;;;14.90;94.40;;;;;;5086409;28;20167;-89
2023/12/19 06:23:06;;;;;;;6.30;2.17;;;14.90;94.50;;;;;;5091473;28;20408;-89
2023/12/19 06:25:32;;;;;;;3.33;2.00;;;14.90;94.70;;;;;;5089924;28;20218;-89
2023/12/19 06:27:58;;;;;;;3.57;1.93;;;14.90;95.00;;;;;;5087681;28;20227;-89
2023/12/19 06:30:27;;;;;;;2.90;2.10;;;14.80;95.50;;;;;;5090012;28;20283;-89
2023/12/19 06:32:53;;;;;;;3.63;1.93;;;14.80;95.60;;;;;;5089401;28;20266;-89
2023/12/19 06:35:21;;;;;;;2.43;2.03;;;14.80;96.20;;;;;;5087142;28;20183;-89
2023/12/19 06:37:54;;;;;;;3.47;1.90;;;14.80;95.80;;;;;;5085111;28;20202;-89
2023/12/19 06:40:26;;;;;;;3.43;2.10;;;14.80;96.10;;;;;;5084927;28;20498;-89
2023/12/19 06:42:52;;;;;;;2.67;1.93;;;14.80;96.20;;;;;;5101323;28;20419;-89
2023/12/19 06:45:18;;;;;;;3.37;2.00;;;14.80;96.30;;;;;;5086994;28;20178;-89
2023/12/19 06:47:45;;;;;;;2.20;2.00;;;14.80;96.50;;;;;;5085277;28;20366;-89
2023/12/19 06:50:11;;;;;;;2.17;1.80;;;14.80;96.40;;;;;;5104979;28;20254;-89
2023/12/19 06:52:36;;;;;;;2.27;1.83;;;14.80;96.60;;;;;;5085268;28;20571;-89
2023/12/19 06:55:05;;;;;;;2.00;1.77;;;14.80;96.50;;;;;;5087902;28;20174;-89
2023/12/19 06:57:33;;;;;;;3.77;2.00;;;14.70;96.50;;;;;;5087917;28;20201;-89
2023/12/19 07:00:02;;;;;;;3.40;1.70;;;14.70;96.60;;;;;;5083473;28;20519;-89
2023/12/19 07:02:28;;;;;;;2.53;1.70;;;14.70;96.70;;;;;;5087997;28;20213;-89
2023/12/19 07:04:57;;;;;;;2.10;1.70;;;14.70;96.70;;;;;;5085919;28;20232;-89
2023/12/19 07:07:26;;;;;;;2.33;1.63;;;14.70;97.00;;;;;;5088026;28;20623;-89
2023/12/19 07:09:52;;;;;;;2.00;1.80;;;14.70;96.70;;;;;;5082152;28;20464;-89
2023/12/19 07:12:20;;;;;;;2.30;1.70;;;14.70;96.80;;;;;;5086996;28;20179;-89
2023/12/19 07:14:49;;;;;;;2.37;1.90;;;14.70;97.00;;;;;;5084102;28;20405;-89
2023/12/19 07:17:15;;;;;;;2.23;1.70;;;14.70;96.90;;;;;;5084049;28;20201;-89
2023/12/19 07:19:41;;;;;;;2.20;2.00;;;14.60;97.00;;;;;;5083177;28;20176;-89
2023/12/19 07:22:07;;;;;;;1.57;1.47;;;14.60;97.10;;;;;;5086779;28;20336;-89
2023/12/19 07:24:33;;;;;;;1.90;1.60;;;14.60;97.10;;;;;;5080466;28;20245;-89
2023/12/19 07:26:58;;;;;;;7.03;2.00;;;14.60;97.30;;;;;;5083180;28;20193;-89
2023/12/19 07:29:24;;;;;;;5.33;1.80;;;14.60;97.30;;;;;;5081233;28;20198;-88
2023/12/19 07:31:51;;;;;;;3.00;1.70;;;14.60;97.20;;;;;;5081790;28;20260;-89
2023/12/19 07:34:20;;;;;;;7.80;1.73;;;14.60;97.30;;;;;;5084504;28;20191;-89
2023/12/19 07:36:49;;;;;;;4.73;1.80;;;14.60;97.30;;;;;;5084662;28;20303;-89
2023/12/19 07:39:19;;;;;;;3.07;1.70;;;14.60;97.30;;;;;;5083448;28;20173;-89
2023/12/19 07:41:48;;;;;;;5.90;1.60;;;14.70;97.40;;;;;;5107853;28;20164;-89
2023/12/19 07:44:16;;;;;;;4.90;1.90;;;14.60;97.40;;;;;;5084748;28;20271;-88
2023/12/19 07:46:45;;;;;;;3.70;1.60;;;14.70;97.50;;;;;;5072922;28;20155;-89
2023/12/19 07:49:13;;;;;;;3.63;1.67;;;14.70;97.50;;;;;;5082905;28;20210;-89
2023/12/19 07:51:43;;;;;;;2.53;1.47;;;14.70;97.40;;;;;;5084437;28;20717;-89
2023/12/19 07:54:09;;;;;;;4.30;1.60;;;14.70;97.40;;;;;;5086846;28;20173;-89
2023/12/19 07:56:40;;;;;;;3.27;1.47;;;14.80;97.20;;;;;;5104862;28;20194;-89
2023/12/19 07:59:06;;;;;;;2.77;1.33;;;14.90;97.10;;;;;;5088281;28;20169;-89
2023/12/19 08:01:32;;;;;;;2.37;1.50;;;14.90;96.90;;;;;;5083614;28;20197;-89
2023/12/19 08:04:04;;;;;;;5.40;1.30;;;14.90;96.80;;;;;;5086535;28;20161;-89
2023/12/19 08:06:32;;;;;;;2.20;1.50;;;14.90;96.90;;;;;;5085416;28;20458;-89
2023/12/19 08:09:02;;;;;;;2.53;1.40;;;14.90;96.80;;;;;;5088084;28;20503;-89
2023/12/19 08:11:28;;;;;;;2.90;1.40;;;14.90;96.90;;;;;;5088725;28;20182;-89
2023/12/19 08:13:54;;;;;;;3.67;1.50;;;14.90;96.80;;;;;;5088620;28;20621;-89
2023/12/19 08:16:23;;;;;;;2.60;1.40;;;14.90;96.80;;;;;;5088345;28;20177;-89
2023/12/19 08:18:50;;;;;;;1.70;1.37;;;14.90;96.90;;;;;;5088003;28;20430;-89
2023/12/19 08:21:16;;;;;;;1.50;1.40;;;14.90;96.90;;;;;;5091553;28;20174;-89
2023/12/19 08:23:44;;;;;;;3.07;1.30;;;14.90;96.90;;;;;;5090523;28;20230;-89
2023/12/19 08:26:13;;;;;;;1.70;1.30;;;14.90;97.00;;;;;;5096292;28;20318;-89
2023/12/19 08:28:39;;;;;;;3.40;1.30;;;14.90;96.90;;;;;;5090927;28;20179;-89
2023/12/19 08:31:08;;;;;;;2.30;1.27;;;14.90;96.90;;;;;;5089701;28;20648;-89
2023/12/19 08:33:43;;;;;;;2.00;1.30;;;14.90;96.90;;;;;;5088589;28;20236;-89
2023/12/19 08:36:09;;;;;;;1.60;1.30;;;14.90;96.80;;;;;;5085368;28;20369;-89
2023/12/19 08:38:43;;;;;;;1.40;1.30;;;14.90;96.80;;;;;;5088514;28;20545;-89
2023/12/19 08:41:11;;;;;;;1.33;1.23;;;14.80;96.80;;;;;;5086141;28;20256;-89
2023/12/19 08:43:40;;;;;;;1.23;1.13;;;14.80;96.70;;;;;;5088617;28;20278;-89
2023/12/19 08:46:08;;;;;;;1.80;1.30;;;14.80;96.80;;;;;;5083864;28;20164;-89
2023/12/19 08:48:34;;;;;;;1.50;1.30;;;14.80;96.80;;;;;;5088389;28;20317;-89
2023/12/19 08:51:04;;;;;;;1.13;1.03;;;14.80;96.80;;;;;;5085369;28;20265;-89
2023/12/19 08:53:31;;;;;;;1.30;1.20;;;14.80;96.90;;;;;;5104504;28;20277;-89
2023/12/19 08:55:57;;;;;;;2.70;1.20;;;14.80;96.90;;;;;;5084658;28;20394;-89
2023/12/19 08:58:22;;;;;;;3.00;1.50;;;14.80;96.90;;;;;;5089760;28;20316;-89
2023/12/19 09:00:51;;;;;;;1.20;1.10;;;14.70;96.90;;;;;;5088090;28;20172;-89
2023/12/19 09:03:20;;;;;;;2.27;1.10;;;14.70;97.00;;;;;;5086488;28;20223;-89
2023/12/19 09:05:52;;;;;;;1.20;1.10;;;14.70;97.00;;;;;;5086819;28;20240;-89
2023/12/19 09:08:21;;;;;;;1.13;1.00;;;14.70;97.10;;;;;;5088800;28;20282;-89
2023/12/19 09:10:47;;;;;;;1.33;1.07;;;14.70;97.00;;;;;;5090156;28;20267;-89
2023/12/19 09:13:16;;;;;;;1.17;1.07;;;14.70;97.10;;;;;;5088536;28;20509;-88
2023/12/19 09:15:42;;;;;;;1.33;1.23;;;14.80;97.10;;;;;;5087889;28;20223;-89
2023/12/19 09:18:11;;;;;;;1.33;1.20;;;14.80;97.10;;;;;;5087575;28;20302;-88
2023/12/19 09:20:39;;;;;;;1.20;1.10;;;14.80;97.00;;;;;;5085673;28;20416;-89
2023/12/19 09:23:05;;;;;;;1.50;1.13;;;14.80;96.90;;;;;;5084543;28;20344;-89
2023/12/19 09:25:30;;;;;;;1.07;1.00;;;14.90;96.90;;;;;;5085841;28;20255;-89
2023/12/19 09:27:56;;;;;;;1.57;1.40;;;14.90;96.80;;;;;;5085735;28;20325;-88
2023/12/19 09:30:23;;;;;;;1.23;1.10;;;14.90;96.80;;;;;;5086082;28;20703;-88
2023/12/19 09:32:52;;;;;;;2.37;1.00;;;15.00;96.70;;;;;;5086846;28;20177;-89
2023/12/19 09:35:18;;;;;;;3.73;1.40;;;15.00;96.60;;;;;;5082561;28;20236;-88
2023/12/19 09:37:46;;;;;;;1.20;1.10;;;15.00;96.60;;;;;;5088928;28;20190;-88
2023/12/19 09:40:18;;;;;;;1.17;1.07;;;15.00;96.50;;;;;;5107586;28;20593;-88
2023/12/19 09:42:50;;;;;;;1.10;1.00;;;15.00;96.60;;;;;;5088281;28;20194;-88
2023/12/19 09:45:18;;;;;;;1.67;1.13;;;15.00;96.70;;;;;;5087080;28;20537;-88
2023/12/19 09:48:00;;;;;;;1.20;1.10;;;15.00;96.80;;;;;;5087335;28;20569;-88
2023/12/19 09:50:31;;;;;;;1.20;1.10;;;15.00;96.80;;;;;;5106303;28;20175;-88
2023/12/19 09:53:00;;;;;;;1.10;1.10;;;15.00;96.90;;;;;;5086021;28;20336;-89
2023/12/19 09:55:30;;;;;;;1.97;1.20;;;14.90;96.90;;;;;;5089941;28;20454;-88
2023/12/19 09:58:02;;;;;;;1.30;1.20;;;15.00;96.90;;;;;;5102828;28;20200;-88
2023/12/19 10:00:32;;;;;;;1.07;0.97;;;14.90;96.90;;;;;;5089598;28;20189;-88
2023/12/19 10:03:02;;;;;;;1.47;1.17;;;14.90;96.80;;;;;;5086032;28;20311;-88
2023/12/19 10:05:30;;;;;;;2.30;1.40;;;14.90;96.90;;;;;;5089376;28;20173;-88
2023/12/19 10:07:59;;;;;;;1.37;1.10;;;15.00;96.90;;;;;;5089338;28;20269;-88
2023/12/19 10:10:56;;;;;;;1.37;1.10;;;14.90;96.90;;;;;;5091231;28;20496;-87
2023/12/19 10:13:33;;;;;;;1.20;1.10;;;14.90;96.90;;;;;;5085973;28;20167;-88
2023/12/19 10:16:02;;;;;;;1.40;1.30;;;14.90;97.00;;;;;;5085494;28;20554;-88
2023/12/19 10:18:28;;;;;;;1.30;1.20;;;14.90;97.00;;;;;;5086173;28;20576;-88
2023/12/19 10:21:13;;;;;;;2.57;1.20;;;14.90;97.10;;;;;;5092094;28;20389;-87
2023/12/19 10:23:39;;;;;;;2.63;1.20;;;14.90;97.20;;;;;;5089638;28;20228;-88
2023/12/19 10:26:09;;;;;;;1.33;1.20;;;14.90;97.20;;;;;;5091736;28;20234;-88
2023/12/19 10:28:38;;;;;;;1.50;1.10;;;14.80;97.20;;;;;;5088611;28;20176;-88
2023/12/19 10:31:11;;;;;;;3.27;1.23;;;14.80;97.20;;;;;;5088335;28;20482;-87
2023/12/19 10:33:49;;;;;;;1.27;1.10;;;14.80;97.40;;;;;;5085352;28;20324;-87
2023/12/19 10:36:36;;;;;;;1.50;1.13;;;14.80;97.40;;;;;;5086262;28;20370;-87
2023/12/19 10:39:07;;;;;;;1.67;1.30;;;14.80;97.50;;;;;;5084903;28;20174;-87
2023/12/19 10:41:43;;;;;;;1.87;1.10;;;14.80;97.80;;;;;;5086315;28;20174;-87
2023/12/19 10:44:12;;;;;;;2.83;1.30;;;14.80;97.60;;;;;;5087316;28;20163;-88
2023/12/19 10:46:41;;;;;;;1.23;1.13;;;14.80;97.60;;;;;;5087265;28;20565;-87
2023/12/19 10:49:07;;;;;;;1.73;1.10;;;14.80;97.60;;;;;;5084562;28;20173;-88
2023/12/19 10:51:42;;;;;;;1.60;1.40;;;14.80;97.60;;;;;;5086276;28;20439;-87
2023/12/19 10:54:15;;;;;;;2.07;1.20;;;14.80;97.50;;;;;;5089023;28;20340;-87
2023/12/19 10:57:11;;;;;;;2.00;1.47;;;14.90;97.50;;;;;;5083726;28;20222;-87
2023/12/19 10:59:47;;;;;;;1.57;1.20;;;14.90;97.40;;;;;;5089627;28;20162;-87
2023/12/19 11:02:25;;;;;;;3.20;1.30;;;14.90;97.40;;;;;;5092918;28;20198;-87
2023/12/19 11:04:57;;;;;;;2.53;1.13;;;14.90;97.40;;;;;;5087743;28;20340;-87
2023/12/19 11:07:35;;;;;;;2.13;1.30;;;14.90;97.30;;;;;;5083714;28;20570;-87
2023/12/19 11:10:06;;;;;;;1.83;1.30;;;14.90;97.30;;;;;;5087435;28;20219;-88
2023/12/19 11:12:37;;;;;;;1.50;1.27;;;15.00;97.30;;;;;;5088839;28;20545;-88
2023/12/19 11:15:05;;;;;;;2.93;1.37;;;15.00;97.30;;;;;;5088111;28;20166;-87
2023/12/19 11:17:45;;;;;;;4.00;1.60;;;15.00;97.50;;;;;;5085241;28;20215;-87
2023/12/19 11:20:22;;;;;;;2.87;1.50;;;14.90;97.60;;;;;;5084227;28;20408;-88
2023/12/19 11:23:19;;;;;;;5.63;1.43;;;14.90;97.70;;;;;;5084565;28;20187;-87
2023/12/19 11:26:25;;;;;;;3.57;1.50;;;15.00;97.80;;;;;;5081170;28;20243;-87
2023/12/19 11:28:54;;;;;;;3.77;1.50;;;14.90;97.70;;;;;;5003342;28;20336;-88
2023/12/19 11:31:34;;;;;;;5.23;1.47;;;14.90;97.80;;;;;;5013827;28;20450;-88
2023/12/19 11:34:22;;;;;;;4.13;1.80;;;14.90;97.90;;;;;;5053387;28;20547;-88
2023/12/19 11:37:07;;;;;;;3.67;1.47;;;14.90;97.90;;;;;;5076824;28;20249;-88
2023/12/19 11:39:43;;;;;;;4.23;1.50;;;14.90;97.90;;;;;;5066575;28;20480;-88
2023/12/19 11:42:48;;;;;;;2.67;1.60;;;14.90;98.00;;;;;;5082656;28;20320;-88
2023/12/19 11:45:36;;;;;;;2.83;1.60;;;14.90;98.00;;;;;;5067699;28;20201;-88
2023/12/19 11:48:22;;;;;;;2.60;1.47;;;14.80;98.00;;;;;;5082174;28;20191;-87
2023/12/19 11:50:47;;;;;;;4.60;1.70;;;14.80;98.00;;;;;;5082819;28;20179;-87
2023/12/19 11:53:23;;;;;;;3.33;1.60;;;14.80;98.10;;;;;;5081397;28;20173;-88
2023/12/19 11:55:48;;;;;;;3.27;1.90;;;14.80;98.10;;;;;;5083847;28;20285;-88
2023/12/19 11:58:16;;;;;;;4.57;1.70;;;14.80;98.10;;;;;;5082055;28;20198;-88
2023/12/19 12:00:55;;;;;;;3.57;1.60;;;14.80;98.10;;;;;;5082089;28;20180;-88
2023/12/19 12:03:24;;;;;;;3.67;1.93;;;14.80;98.20;;;;;;5082995;28;20248;-87
2023/12/19 12:05:51;;;;;;;2.17;1.50;;;14.70;98.10;;;;;;5085903;28;20195;-88
2023/12/19 12:08:19;;;;;;;2.60;1.70;;;14.70;98.10;;;;;;5084014;28;20184;-88
2023/12/19 12:11:20;;;;;;;3.00;1.20;;;14.70;98.20;;;;;;5086162;28;20195;-88
2023/12/19 12:14:03;;;;;;;2.67;1.50;;;14.70;98.30;;;;;;5027335;28;20543;-87
2023/12/19 12:16:42;;;;;;;3.17;1.40;;;14.70;98.30;;;;;;5079810;28;20174;-88
2023/12/19 12:19:11;;;;;;;2.50;1.40;;;14.70;98.40;;;;;;5077694;28;20494;-88
2023/12/19 12:21:45;;;;;;;2.83;1.70;;;14.70;98.40;;;;;;5080866;28;20212;-88
2023/12/19 12:24:26;;;;;;;3.17;1.60;;;14.70;98.30;;;;;;5083889;28;20185;-87
2023/12/19 12:27:09;;;;;;;3.43;1.47;;;14.70;98.30;;;;;;5085673;28;20179;-88
2023/12/19 12:29:41;;;;;;;2.60;1.70;;;14.80;98.30;;;;;;5103354;28;20180;-88
2023/12/19 12:32:08;;;;;;;4.93;1.57;;;14.80;98.30;;;;;;5086599;28;20565;-88
2023/12/19 12:34:37;;;;;;;3.07;1.57;;;14.80;98.20;;;;;;5085509;28;20195;-88
2023/12/19 12:37:02;;;;;;;4.13;1.70;;;14.90;98.10;;;;;;5084830;28;20277;-88
2023/12/19 12:39:35;;;;;;;3.13;1.57;;;14.90;98.10;;;;;;5090419;28;20182;-88
2023/12/19 12:42:05;;;;;;;7.47;1.90;;;14.90;98.10;;;;;;5090330;28;20321;-88
2023/12/19 12:44:31;;;;;;;4.20;1.53;;;14.90;98.00;;;;;;5087285;28;20170;-88
2023/12/19 12:47:00;;;;;;;3.10;1.53;;;14.90;98.00;;;;;;5088360;28;20475;-88
2023/12/19 12:49:29;;;;;;;1.63;1.40;;;14.90;98.00;;;;;;5087549;28;20435;-88
2023/12/19 12:52:01;;;;;;;3.47;1.43;;;14.90;98.20;;;;;;5085740;28;20346;-88
2023/12/19 12:54:36;;;;;;;3.53;1.63;;;14.90;97.90;;;;;;5101616;28;20172;-87
2023/12/19 12:57:12;;;;;;;1.60;1.40;;;14.90;97.90;;;;;;5077571;28;20548;-87
2023/12/19 12:59:40;;;;;;;3.60;1.33;;;14.90;97.90;;;;;;5095067;28;20197;-87